Time;durP1;ratioP1;P1;durP2;ratioP2;P2;SDS_P1;SDS_P2;PMS_P1;PMS_P2;Temp;Humidity;BMP_temperature;BMP_pressure;BME280_temperature;BME280_humidity;BME280_pressure;Samples;Min_cycle;Max_cycle;Signal;HPM_P1;HPM_P2
2024/02/08 00:02:11;;;;;;;7.30;2.90;;;22.50;42.50;;;;;;5089970;28;20133;-34
2024/02/08 00:04:37;;;;;;;6.05;2.75;;;22.50;43.40;;;;;;5082945;28;20049;-34
2024/02/08 00:07:04;;;;;;;5.28;2.55;;;22.50;43.80;;;;;;5076394;28;20032;-33
2024/02/08 00:09:31;;;;;;;7.13;2.78;;;22.50;43.90;;;;;;5072688;28;20036;-32
2024/02/08 00:11:57;;;;;;;7.68;2.63;;;22.50;44.20;;;;;;5074740;28;20033;-32
2024/02/08 00:14:23;;;;;;;3.70;2.10;;;22.50;44.50;;;;;;5069838;28;20036;-29
2024/02/08 00:16:50;;;;;;;6.88;2.38;;;22.50;44.80;;;;;;5026144;28;20055;-34
2024/02/08 00:19:16;;;;;;;5.72;2.40;;;22.50;44.80;;;;;;5054930;28;20306;-33
2024/02/08 00:21:44;;;;;;;5.72;2.38;;;22.40;44.60;;;;;;5059652;28;20056;-35
2024/02/08 00:24:10;;;;;;;4.72;2.20;;;22.40;44.60;;;;;;5058798;28;20037;-29
2024/02/08 00:26:36;;;;;;;3.95;2.08;;;22.40;44.60;;;;;;5052379;28;20040;-31
2024/02/08 00:29:02;;;;;;;3.72;1.70;;;22.40;44.20;;;;;;5058372;28;20041;-35
2024/02/08 00:31:29;;;;;;;6.05;2.00;;;22.40;43.90;;;;;;5053003;28;20021;-31
2024/02/08 00:33:55;;;;;;;3.92;2.10;;;22.40;43.70;;;;;;5053589;28;20039;-30
2024/02/08 00:36:21;;;;;;;5.43;2.05;;;22.40;43.70;;;;;;5060290;28;20488;-31
2024/02/08 00:38:48;;;;;;;4.32;2.00;;;22.40;43.70;;;;;;5055983;28;20107;-30
2024/02/08 00:41:14;;;;;;;4.25;1.83;;;22.40;43.70;;;;;;5058522;28;20048;-31
2024/02/08 00:43:40;;;;;;;4.00;1.88;;;22.40;43.90;;;;;;5040593;28;20040;-33
2024/02/08 00:46:06;;;;;;;4.88;1.70;;;22.30;43.90;;;;;;5057374;28;20045;-31
2024/02/08 00:48:32;;;;;;;3.60;1.73;;;22.30;43.90;;;;;;5054433;28;20032;-33
2024/02/08 00:50:59;;;;;;;2.63;1.63;;;22.30;43.90;;;;;;5056339;28;20036;-33
2024/02/08 00:53:25;;;;;;;7.22;1.70;;;22.30;43.90;;;;;;5062019;28;20033;-37
2024/02/08 00:55:51;;;;;;;2.85;1.30;;;22.30;44.00;;;;;;5059081;28;20029;-33
2024/02/08 00:58:17;;;;;;;4.88;1.50;;;22.30;44.10;;;;;;5059073;28;20055;-36
2024/02/08 01:00:44;;;;;;;4.32;1.70;;;22.30;44.00;;;;;;5057586;28;20116;-31
2024/02/08 01:03:13;;;;;;;4.25;1.90;;;22.30;44.30;;;;;;5051869;28;20025;-31
2024/02/08 01:05:41;;;;;;;5.82;2.00;;;22.30;44.50;;;;;;5035135;28;20048;-31
2024/02/08 01:08:08;;;;;;;1.33;1.23;;;22.30;44.40;;;;;;5059890;28;20037;-33
2024/02/08 01:10:34;;;;;;;;;;;22.30;44.20;;;;;;5060762;28;20043;-33
2024/02/08 01:13:01;;;;;;;2.15;1.55;;;22.30;44.20;;;;;;5053127;28;19913;-33
2024/02/08 01:15:28;;;;;;;2.75;1.48;;;22.30;44.10;;;;;;5048839;28;20021;-31
2024/02/08 01:17:55;;;;;;;4.07;1.55;;;22.30;44.10;;;;;;5058924;28;20446;-37
2024/02/08 01:20:22;;;;;;;2.17;1.52;;;22.20;44.00;;;;;;5057851;28;20568;-33
2024/02/08 01:22:52;;;;;;;2.72;1.30;;;22.20;44.20;;;;;;5051155;28;20052;-32
2024/02/08 01:25:21;;;;;;;3.20;1.48;;;22.30;44.40;;;;;;5059576;28;20044;-34
2024/02/08 01:27:48;;;;;;;1.60;1.25;;;22.30;44.30;;;;;;5053222;28;20067;-32
2024/02/08 01:30:14;;;;;;;1.92;1.20;;;22.30;44.20;;;;;;5052463;28;20029;-32
2024/02/08 01:32:42;;;;;;;3.60;1.20;;;22.30;44.10;;;;;;5055881;28;20045;-32
2024/02/08 01:35:12;;;;;;;2.88;1.63;;;22.20;44.10;;;;;;5044079;28;20482;-36
2024/02/08 01:37:39;;;;;;;2.75;1.30;;;22.20;43.90;;;;;;5034682;28;20831;-34
2024/02/08 01:40:16;;;;;;;1.30;1.08;;;22.20;44.00;;;;;;5060444;28;20092;-32
2024/02/08 01:42:48;;;;;;;2.90;1.20;;;22.20;44.20;;;;;;5060641;28;20035;-34
2024/02/08 01:45:31;;;;;;;3.40;1.42;;;22.20;44.30;;;;;;5061097;28;20306;-32
2024/02/08 01:48:02;;;;;;;1.20;1.10;;;22.20;44.10;;;;;;5055353;28;20029;-34
2024/02/08 01:50:37;;;;;;;3.58;1.20;;;22.20;44.10;;;;;;5035753;28;20080;-35
2024/02/08 01:53:06;;;;;;;3.33;1.10;;;22.20;44.00;;;;;;5039715;28;20029;-36
2024/02/08 01:55:33;;;;;;;3.63;1.23;;;22.20;44.00;;;;;;5051342;28;20071;-34
2024/02/08 01:58:05;;;;;;;3.08;1.33;;;22.20;44.40;;;;;;5043470;28;20063;-33
2024/02/08 02:00:36;;;;;;;2.58;1.33;;;22.20;44.40;;;;;;5059017;28;20029;-32
2024/02/08 02:03:12;;;;;;;1.58;1.25;;;22.20;44.20;;;;;;5050470;28;20481;-34
2024/02/08 02:05:42;;;;;;;1.63;1.27;;;22.20;44.10;;;;;;5077679;28;20048;-33
2024/02/08 02:08:16;;;;;;;1.40;1.20;;;22.20;44.10;;;;;;5085769;28;20032;-34
2024/02/08 02:11:06;;;;;;;1.33;1.00;;;22.20;44.20;;;;;;5059090;28;20028;-32
2024/02/08 02:13:36;;;;;;;1.80;1.30;;;22.20;44.50;;;;;;5078252;28;20036;-34
2024/02/08 02:16:03;;;;;;;1.60;1.17;;;22.20;44.70;;;;;;5059661;28;20024;-37
2024/02/08 02:18:31;;;;;;;1.77;1.10;;;22.20;44.40;;;;;;5068885;28;20037;-32
2024/02/08 02:20:58;;;;;;;2.70;1.10;;;22.20;44.30;;;;;;5075705;28;20032;-33
2024/02/08 02:23:27;;;;;;;3.55;1.40;;;22.20;44.80;;;;;;5068745;28;20043;-31
2024/02/08 02:25:54;;;;;;;2.13;1.20;;;22.10;44.20;;;;;;5077470;28;20055;-34
2024/02/08 02:28:21;;;;;;;;;;;22.10;44.60;;;;;;5069750;28;20461;-36
2024/02/08 02:30:51;;;;;;;2.60;1.20;;;22.10;44.60;;;;;;5059282;28;19916;-32
2024/02/08 02:33:19;;;;;;;1.48;1.20;;;22.10;44.60;;;;;;5069405;28;20085;-35
2024/02/08 02:35:49;;;;;;;1.83;1.10;;;22.10;44.30;;;;;;5041685;28;20021;-32
2024/02/08 02:38:19;;;;;;;2.53;1.20;;;22.10;44.30;;;;;;5072085;28;20099;-32
2024/02/08 02:40:49;;;;;;;2.58;1.40;;;22.10;44.30;;;;;;5073630;28;21433;-31
2024/02/08 02:43:16;;;;;;;1.92;1.30;;;22.10;44.30;;;;;;5072007;28;20033;-34
2024/02/08 02:45:43;;;;;;;2.13;1.42;;;22.10;44.60;;;;;;5057336;28;20036;-32
2024/02/08 02:48:09;;;;;;;1.20;1.00;;;22.10;44.60;;;;;;5075897;28;20032;-31
2024/02/08 02:50:42;;;;;;;2.53;1.42;;;22.10;44.50;;;;;;5076965;28;20052;-31
2024/02/08 02:53:09;;;;;;;2.13;1.17;;;22.10;44.30;;;;;;5075599;28;20052;-32
2024/02/08 02:55:41;;;;;;;1.63;1.02;;;22.10;44.20;;;;;;5073921;28;20044;-36
2024/02/08 02:58:08;;;;;;;1.52;1.23;;;22.10;44.20;;;;;;5066465;28;20033;-34
2024/02/08 03:00:34;;;;;;;;;;;22.00;44.30;;;;;;5073745;28;20033;-33
2024/02/08 03:03:08;;;;;;;2.08;1.38;;;22.10;44.50;;;;;;5070899;28;19913;-35
2024/02/08 03:05:35;;;;;;;2.15;1.20;;;22.10;44.40;;;;;;5072798;28;20057;-32
2024/02/08 03:08:05;;;;;;;2.03;1.30;;;22.10;44.30;;;;;;5074829;28;20037;-31
2024/02/08 03:10:33;;;;;;;2.53;1.50;;;22.00;44.10;;;;;;5072939;28;20108;-33
2024/02/08 03:12:59;;;;;;;2.13;1.35;;;22.00;44.10;;;;;;5054647;28;20032;-30
2024/02/08 03:15:27;;;;;;;1.80;1.40;;;22.00;44.30;;;;;;5051819;28;20469;-33
2024/02/08 03:17:54;;;;;;;1.73;1.60;;;22.00;44.30;;;;;;5069777;28;20047;-32
2024/02/08 03:20:53;;;;;;;1.98;1.30;;;22.00;44.30;;;;;;5075638;28;20036;-31
2024/02/08 03:23:13;;;;;;;2.55;1.55;;;22.00;44.20;;;;;;5069526;28;20044;-34
2024/02/08 03:25:40;;;;;;;2.53;1.45;;;22.00;44.00;;;;;;5071719;28;20043;-32
2024/02/08 03:28:08;;;;;;;2.20;1.40;;;22.00;44.00;;;;;;5060820;28;20070;-34
2024/02/08 03:30:34;;;;;;;2.15;1.70;;;22.00;44.10;;;;;;5073324;28;20055;-34
2024/02/08 03:33:12;;;;;;;2.28;1.35;;;22.00;44.20;;;;;;5076406;28;20036;-32
2024/02/08 03:35:39;;;;;;;2.93;1.77;;;22.00;44.30;;;;;;5074040;28;20053;-32
2024/02/08 03:38:08;;;;;;;2.15;1.42;;;22.00;44.20;;;;;;5075176;28;20029;-33
2024/02/08 03:40:36;;;;;;;1.80;1.55;;;22.00;44.00;;;;;;5070907;28;20033;-33
2024/02/08 03:43:03;;;;;;;1.90;1.50;;;22.00;43.90;;;;;;5058525;28;20031;-32
2024/02/08 03:45:30;;;;;;;2.50;1.65;;;22.00;44.00;;;;;;5078183;28;20036;-29
2024/02/08 03:47:59;;;;;;;2.20;1.80;;;21.90;44.10;;;;;;5077613;28;20095;-30
2024/02/08 03:50:29;;;;;;;2.13;1.60;;;22.00;44.20;;;;;;5073975;28;20041;-35
2024/02/08 03:52:58;;;;;;;1.60;1.50;;;22.00;44.10;;;;;;5080232;28;20082;-33
2024/02/08 03:55:28;;;;;;;2.40;1.58;;;22.00;44.10;;;;;;5079104;28;20025;-34
2024/02/08 03:58:00;;;;;;;2.47;1.92;;;21.90;44.40;;;;;;5077142;28;20032;-32
2024/02/08 04:00:29;;;;;;;2.45;1.88;;;21.90;43.80;;;;;;5072842;28;20040;-31
2024/02/08 04:02:56;;;;;;;2.22;1.67;;;21.90;44.00;;;;;;5083133;28;20051;-34
2024/02/08 04:06:26;;;;;;;2.05;1.45;;;21.90;44.00;;;;;;5082564;28;20048;-32
2024/02/08 04:54:37;;;;;;;2.25;1.55;;;21.90;43.70;;;;;;5075824;28;20047;-33
2024/02/08 04:57:03;;;;;;;2.42;1.52;;;21.90;43.60;;;;;;5076460;28;20036;-35
2024/02/08 04:59:30;;;;;;;5.00;1.52;;;21.90;43.50;;;;;;5072517;28;20028;-34
2024/02/08 05:01:56;;;;;;;4.18;1.75;;;21.90;44.20;;;;;;5075500;28;20036;-33
2024/02/08 05:04:22;;;;;;;1.95;1.63;;;21.90;43.70;;;;;;5080820;28;20070;-33
2024/02/08 05:06:49;;;;;;;1.85;1.45;;;21.90;43.70;;;;;;5075060;28;20029;-37
2024/02/08 05:09:19;;;;;;;2.90;1.75;;;21.90;43.70;;;;;;5081739;28;20025;-32
2024/02/08 05:11:48;;;;;;;2.15;1.60;;;21.90;43.50;;;;;;5078413;28;20075;-35
2024/02/08 05:14:15;;;;;;;1.85;1.60;;;21.90;43.40;;;;;;5075543;28;20550;-33
2024/02/08 05:16:41;;;;;;;2.40;1.67;;;21.90;43.50;;;;;;5081137;28;20043;-32
2024/02/08 05:19:09;;;;;;;3.10;1.40;;;21.90;43.70;;;;;;5079000;28;20029;-34
2024/02/08 05:21:40;;;;;;;1.67;1.38;;;21.90;43.60;;;;;;5080103;28;20021;-34
2024/02/08 05:24:12;;;;;;;1.88;1.67;;;21.90;43.50;;;;;;5077275;28;20096;-30
2024/02/08 05:26:40;;;;;;;2.22;1.50;;;21.90;43.40;;;;;;5059856;28;20025;-34
2024/02/08 05:29:08;;;;;;;2.75;1.50;;;21.90;43.30;;;;;;5066751;28;20043;-31
2024/02/08 05:31:39;;;;;;;1.77;1.48;;;21.80;43.40;;;;;;5064115;28;20028;-35
2024/02/08 05:34:10;;;;;;;2.42;1.50;;;21.90;43.50;;;;;;5073398;28;20043;-32
2024/02/08 05:36:39;;;;;;;2.78;1.65;;;21.90;43.50;;;;;;5070007;28;20033;-30
2024/02/08 05:39:08;;;;;;;1.58;1.40;;;21.90;43.40;;;;;;5068853;28;20040;-31
2024/02/08 05:41:35;;;;;;;1.75;1.27;;;21.80;43.30;;;;;;5067148;28;20047;-34
2024/02/08 05:44:07;;;;;;;2.00;1.65;;;21.80;43.20;;;;;;5050672;28;20028;-33
2024/02/08 05:46:39;;;;;;;2.35;1.38;;;21.80;43.30;;;;;;5070118;28;20057;-34
2024/02/08 05:49:13;;;;;;;1.88;1.50;;;21.80;43.40;;;;;;5070508;28;20021;-35
2024/02/08 05:51:51;;;;;;;1.75;1.50;;;21.90;43.40;;;;;;5067361;28;20033;-34
2024/02/08 05:54:20;;;;;;;;;;;21.80;43.30;;;;;;5068790;28;20032;-32
2024/02/08 05:56:47;;;;;;;2.95;1.75;;;21.80;43.20;;;;;;5066908;28;19923;-34
2024/02/08 05:59:17;;;;;;;1.58;1.48;;;21.80;43.20;;;;;;5072168;28;20037;-34
2024/02/08 06:01:54;;;;;;;2.38;1.88;;;21.80;43.30;;;;;;5074569;28;20123;-30
2024/02/08 06:04:34;;;;;;;1.88;1.55;;;21.80;43.30;;;;;;5052101;28;20067;-32
2024/02/08 06:07:05;;;;;;;1.85;1.60;;;21.80;43.30;;;;;;5065624;28;20130;-31
2024/02/08 06:09:48;;;;;;;1.92;1.48;;;21.80;43.20;;;;;;5067802;28;20103;-36
2024/02/08 06:12:59;;;;;;;1.35;1.23;;;21.80;43.60;;;;;;5071572;28;20029;-31
2024/02/08 06:15:21;;;;;;;2.00;1.43;;;21.80;43.20;;;;;;5067272;28;20048;-31
2024/02/08 06:17:57;;;;;;;1.90;1.45;;;21.80;43.20;;;;;;5067339;28;20032;-32
2024/02/08 06:20:33;;;;;;;1.92;1.70;;;21.80;43.20;;;;;;5067986;28;20056;-31
2024/02/08 06:23:16;;;;;;;2.47;1.55;;;21.80;43.10;;;;;;5053775;28;20669;-32
2024/02/08 06:25:45;;;;;;;3.67;1.70;;;21.80;43.00;;;;;;5069245;28;20648;-31
2024/02/08 06:28:13;;;;;;;2.17;1.75;;;21.80;43.00;;;;;;5072470;28;20025;-35
2024/02/08 06:30:46;;;;;;;1.98;1.77;;;21.80;43.10;;;;;;5066606;28;20044;-30
2024/02/08 06:33:25;;;;;;;2.55;1.77;;;21.80;43.10;;;;;;5066790;28;20020;-36
2024/02/08 06:35:56;;;;;;;2.03;1.70;;;21.80;43.10;;;;;;5066805;28;20135;-32
2024/02/08 06:38:40;;;;;;;2.15;1.65;;;21.80;43.00;;;;;;5070599;28;20027;-32
2024/02/08 06:41:23;;;;;;;2.25;1.50;;;21.80;42.90;;;;;;5067987;28;20863;-35
2024/02/08 06:43:57;;;;;;;1.95;1.52;;;21.80;43.00;;;;;;5072103;28;20025;-31
2024/02/08 06:46:47;;;;;;;2.13;1.83;;;21.80;43.00;;;;;;5065518;28;20029;-33
2024/02/08 07:41:53;;;;;;;1.80;1.50;;;21.70;42.70;;;;;;4994045;28;20042;-33
2024/02/08 07:44:22;;;;;;;3.13;1.88;;;21.70;42.60;;;;;;5002438;28;20045;-31
2024/02/08 07:46:54;;;;;;;2.20;1.60;;;21.70;42.70;;;;;;4992740;28;20061;-31
2024/02/08 07:49:41;;;;;;;2.35;1.75;;;21.70;42.70;;;;;;5000397;28;20555;-35
2024/02/08 07:52:29;;;;;;;1.52;1.42;;;21.70;42.60;;;;;;4999707;28;20061;-34
2024/02/08 07:55:14;;;;;;;1.60;1.50;;;21.70;42.60;;;;;;4996742;28;20202;-34
2024/02/08 07:57:48;;;;;;;1.83;1.70;;;21.70;42.60;;;;;;4992037;28;20291;-35
2024/02/08 08:00:57;;;;;;;2.97;1.80;;;21.70;42.60;;;;;;5002250;28;20054;-32
2024/02/08 08:03:08;;;;;;;3.00;1.88;;;21.70;42.60;;;;;;4995248;28;20076;-31
2024/02/08 08:05:41;;;;;;;2.13;1.60;;;21.70;42.60;;;;;;5002538;28;20049;-33
2024/02/08 08:08:27;;;;;;;1.98;1.70;;;21.70;42.60;;;;;;5001494;28;20027;-35
2024/02/08 08:10:56;;;;;;;3.60;1.80;;;21.70;42.60;;;;;;4997258;28;20053;-37
2024/02/08 08:19:19;;;;;;;1.67;1.50;;;21.70;42.60;;;;;;5074747;28;20489;-35
2024/02/08 08:22:03;;;;;;;2.53;1.77;;;21.70;42.50;;;;;;5080085;28;20489;-32
2024/02/08 08:24:29;;;;;;;2.28;1.83;;;21.60;42.50;;;;;;5065666;28;20072;-32
2024/02/08 08:27:06;;;;;;;1.77;1.60;;;21.60;42.50;;;;;;5074868;28;20043;-35
2024/02/08 08:29:45;;;;;;;2.73;2.00;;;21.60;42.50;;;;;;5081573;28;20040;-30
2024/02/08 08:35:37;;;;;;;2.50;2.03;;;21.70;42.50;;;;;;5078278;28;20493;-33
2024/02/08 08:38:13;;;;;;;2.55;1.95;;;21.70;42.50;;;;;;5074920;28;20032;-33
2024/02/08 08:40:37;;;;;;;5.65;2.00;;;21.60;42.40;;;;;;5082346;28;20044;-32
2024/02/08 08:43:25;;;;;;;2.58;1.80;;;21.60;42.40;;;;;;5083683;28;20021;-33
2024/02/08 08:45:52;;;;;;;2.30;2.03;;;21.70;42.50;;;;;;5080216;28;20561;-33
2024/02/08 08:48:21;;;;;;;2.22;1.80;;;21.70;42.50;;;;;;5081587;28;20039;-31
2024/02/08 08:50:55;;;;;;;5.35;1.98;;;21.70;42.50;;;;;;5076635;28;20043;-34
2024/02/08 08:53:28;;;;;;;3.78;2.10;;;21.70;42.40;;;;;;5074196;28;20028;-31
2024/02/08 08:55:55;;;;;;;2.38;1.60;;;21.60;42.40;;;;;;5076080;28;20039;-34
2024/02/08 08:58:27;;;;;;;5.72;1.92;;;21.60;42.30;;;;;;5074678;28;20067;-31
2024/02/08 09:01:40;;;;;;;2.40;1.70;;;21.60;42.60;;;;;;5072577;28;20090;-32
2024/02/08 09:03:55;;;;;;;5.25;2.08;;;21.70;42.60;;;;;;5057869;28;20052;-33
2024/02/08 09:06:25;;;;;;;3.95;2.50;;;21.70;42.70;;;;;;5058808;28;20123;-32
2024/02/08 09:08:59;;;;;;;3.08;2.08;;;21.70;42.70;;;;;;5075965;28;20028;-32
2024/02/08 09:11:25;;;;;;;2.60;2.13;;;21.60;42.60;;;;;;5078223;28;20036;-29
2024/02/08 09:13:55;;;;;;;4.57;1.75;;;21.60;42.50;;;;;;5079513;28;20021;-32
2024/02/08 09:19:03;;;;;;;2.42;1.73;;;21.70;42.50;;;;;;5055689;28;20021;-30
2024/02/08 09:21:32;;;;;;;4.70;2.03;;;21.70;42.50;;;;;;5074150;28;20029;-34
2024/02/08 09:24:13;;;;;;;2.83;2.00;;;21.70;42.50;;;;;;5080175;28;20021;-34
2024/02/08 09:26:52;;;;;;;2.20;1.88;;;21.60;42.40;;;;;;5076863;28;20036;-31
2024/02/08 09:29:27;;;;;;;2.60;2.10;;;21.60;42.40;;;;;;5071498;28;20060;-33
2024/02/08 09:31:59;;;;;;;3.33;1.92;;;21.60;42.40;;;;;;5072637;28;20037;-30
2024/02/08 09:34:39;;;;;;;2.67;1.95;;;21.70;42.40;;;;;;5078196;28;20028;-34
2024/02/08 09:37:09;;;;;;;2.20;1.73;;;21.70;42.40;;;;;;5075837;28;20095;-30
2024/02/08 09:39:58;;;;;;;3.53;2.38;;;21.60;42.30;;;;;;5077694;28;20036;-33
2024/02/08 09:42:26;;;;;;;2.88;2.25;;;21.60;42.20;;;;;;5074153;28;20029;-35
2024/02/08 09:45:18;;;;;;;2.78;2.40;;;21.60;42.20;;;;;;5074876;28;20054;-36
2024/02/08 09:48:00;;;;;;;2.92;2.13;;;21.70;42.30;;;;;;5078326;28;20025;-31
2024/02/08 09:50:36;;;;;;;2.83;2.20;;;21.70;42.30;;;;;;5077855;28;20036;-32
2024/02/08 09:53:17;;;;;;;3.17;2.08;;;21.60;42.20;;;;;;5058299;28;20036;-36
2024/02/08 09:55:58;;;;;;;2.50;2.05;;;21.60;42.20;;;;;;5069748;28;20512;-35
2024/02/08 09:59:58;;;;;;;2.28;1.92;;;21.60;42.10;;;;;;5076148;28;20101;-31
2024/02/08 10:01:22;;;;;;;2.72;2.20;;;21.60;42.10;;;;;;5068033;28;20063;-32
2024/02/08 10:03:49;;;;;;;2.65;2.15;;;21.70;42.20;;;;;;5070422;28;20078;-34
2024/02/08 10:06:38;;;;;;;2.75;2.20;;;21.70;42.20;;;;;;5056801;28;20100;-36
2024/02/08 10:09:33;;;;;;;2.58;2.20;;;21.60;42.10;;;;;;5060048;28;20035;-33
2024/02/08 10:11:57;;;;;;;2.60;2.38;;;21.60;42.10;;;;;;5056348;28;20048;-36
2024/02/08 10:14:32;;;;;;;4.22;2.40;;;21.60;42.10;;;;;;5059815;28;20116;-33
2024/02/08 10:17:24;;;;;;;2.92;2.30;;;21.60;42.10;;;;;;5060632;28;20465;-31
2024/02/08 10:22:53;;;;;;;3.47;2.35;;;21.60;42.10;;;;;;5058462;28;20040;-35
2024/02/08 10:28:10;;;;;;;2.88;2.13;;;21.60;42.00;;;;;;5050520;28;20044;-32
2024/02/08 10:30:37;;;;;;;2.17;1.80;;;21.60;42.10;;;;;;5059742;28;20048;-33
2024/02/08 10:33:10;;;;;;;3.35;2.30;;;21.60;42.10;;;;;;5049458;28;20040;-36
2024/02/08 10:35:39;;;;;;;2.80;2.03;;;21.60;42.10;;;;;;5040092;28;21672;-33
2024/02/08 10:38:47;;;;;;;4.30;2.00;;;21.60;42.00;;;;;;5055580;28;20040;-35
2024/02/08 10:41:18;;;;;;;4.97;2.20;;;21.60;42.00;;;;;;5040740;28;20044;-35
2024/02/08 10:43:57;;;;;;;3.03;2.50;;;21.60;41.90;;;;;;5036675;28;20033;-33
2024/02/08 10:46:31;;;;;;;2.80;2.28;;;21.60;42.50;;;;;;5054196;28;20047;-32
2024/02/08 10:49:10;;;;;;;2.50;1.98;;;21.60;42.00;;;;;;5054758;28;20040;-33
2024/02/08 10:51:37;;;;;;;2.85;2.08;;;21.60;42.50;;;;;;5054537;28;20033;-37
2024/02/08 10:54:08;;;;;;;2.60;2.10;;;21.60;41.90;;;;;;5054667;28;20065;-31
2024/02/08 10:56:41;;;;;;;3.70;2.03;;;21.60;42.00;;;;;;5056754;28;20281;-34
2024/02/08 10:59:14;;;;;;;4.80;2.58;;;21.60;42.10;;;;;;5033073;28;20028;-36
2024/02/08 11:04:28;;;;;;;3.15;2.15;;;21.70;42.10;;;;;;5058972;28;20139;-32
2024/02/08 11:07:06;;;;;;;2.42;2.10;;;21.60;42.00;;;;;;5076011;28;20051;-35
2024/02/08 11:09:34;;;;;;;3.30;2.05;;;21.60;41.90;;;;;;5070567;28;20021;-31
2024/02/08 11:12:23;;;;;;;2.35;2.03;;;21.60;41.90;;;;;;5078152;28;20041;-31
2024/02/08 11:14:53;;;;;;;3.33;2.28;;;21.60;41.90;;;;;;5073019;28;20139;-31
2024/02/08 11:17:27;;;;;;;3.40;2.40;;;21.60;41.90;;;;;;5074597;28;20025;-34
2024/02/08 11:19:57;;;;;;;2.65;2.38;;;21.60;41.90;;;;;;5060743;28;20029;-32
2024/02/08 11:22:39;;;;;;;2.70;2.20;;;21.60;41.90;;;;;;5049947;28;20059;-33
2024/02/08 11:25:20;;;;;;;2.33;2.00;;;21.60;41.90;;;;;;5072333;28;20566;-36
2024/02/08 11:27:50;;;;;;;2.45;2.08;;;21.60;41.70;;;;;;5059507;28;20029;-35
2024/02/08 11:30:22;;;;;;;2.80;2.35;;;21.60;41.80;;;;;;5069999;28;20086;-33
2024/02/08 11:33:20;;;;;;;2.80;2.30;;;21.60;41.80;;;;;;5061960;28;20059;-32
2024/02/08 11:35:54;;;;;;;2.67;1.80;;;21.60;41.80;;;;;;5078317;28;20125;-37
2024/02/08 11:38:34;;;;;;;3.20;2.35;;;21.60;41.80;;;;;;5075876;28;20048;-32
2024/02/08 11:41:09;;;;;;;2.63;2.05;;;21.60;41.70;;;;;;5073806;28;20029;-35
2024/02/08 11:43:41;;;;;;;2.20;1.95;;;21.60;41.70;;;;;;5068031;28;20035;-33
2024/02/08 11:46:18;;;;;;;2.70;2.08;;;21.60;41.70;;;;;;5074943;28;20048;-32
2024/02/08 11:48:44;;;;;;;2.72;2.05;;;21.60;41.70;;;;;;5057379;28;20048;-32
2024/02/08 11:51:11;;;;;;;3.13;2.10;;;21.60;41.70;;;;;;5074425;28;20028;-32
2024/02/08 11:53:39;;;;;;;2.45;2.03;;;21.60;41.70;;;;;;5077634;28;20036;-35
2024/02/08 11:56:09;;;;;;;2.55;2.03;;;21.60;41.70;;;;;;5057299;28;20033;-36
2024/02/08 11:58:46;;;;;;;2.75;2.28;;;21.50;41.60;;;;;;5075971;28;20033;-34
2024/02/08 12:01:17;;;;;;;3.20;2.05;;;21.60;41.70;;;;;;5070978;28;20775;-32
2024/02/08 12:03:44;;;;;;;2.67;2.13;;;21.60;41.70;;;;;;5077272;28;20096;-33
2024/02/08 12:06:22;;;;;;;2.80;2.10;;;21.60;41.70;;;;;;5077232;28;20036;-33
2024/02/08 12:09:06;;;;;;;2.40;2.15;;;21.60;41.70;;;;;;5071561;28;20044;-34
2024/02/08 12:11:33;;;;;;;2.45;1.80;;;21.50;41.60;;;;;;5075087;28;20177;-34
2024/02/08 12:14:11;;;;;;;2.70;2.00;;;21.60;41.60;;;;;;5082519;28;20024;-32
2024/02/08 12:16:50;;;;;;;2.20;2.00;;;21.50;41.60;;;;;;5077542;28;20039;-35
2024/02/08 12:19:16;;;;;;;3.08;2.03;;;21.60;41.60;;;;;;5076510;28;20067;-35
2024/02/08 12:21:43;;;;;;;3.90;2.43;;;21.60;41.60;;;;;;5083220;28;20028;-32
2024/02/08 12:24:15;;;;;;;2.30;1.80;;;21.60;41.70;;;;;;5060261;28;20772;-34
2024/02/08 12:26:42;;;;;;;2.65;1.88;;;21.50;41.60;;;;;;5076128;28;20052;-41
2024/02/08 12:29:16;;;;;;;;;;;21.50;41.50;;;;;;5065886;28;20055;-31
2024/02/08 12:31:48;;;;;;;2.58;2.10;;;21.50;41.50;;;;;;5080498;28;20382;-34
2024/02/08 12:34:18;;;;;;;2.17;1.80;;;21.50;41.60;;;;;;5061020;28;20036;-34
2024/02/08 12:36:45;;;;;;;2.53;2.00;;;21.50;41.60;;;;;;5080858;28;20025;-31
2024/02/08 12:39:18;;;;;;;2.92;2.13;;;21.60;41.70;;;;;;5058481;28;20043;-30
2024/02/08 12:41:45;;;;;;;2.25;2.05;;;21.50;41.60;;;;;;5060950;28;20628;-34
2024/02/08 12:44:12;;;;;;;2.28;1.85;;;21.50;41.60;;;;;;5082800;28;20131;-38
2024/02/08 12:46:38;;;;;;;2.40;1.80;;;21.50;41.50;;;;;;5072525;28;21123;-31
2024/02/08 12:49:07;;;;;;;2.33;1.80;;;21.50;41.60;;;;;;5076135;28;20020;-31
2024/02/08 12:51:39;;;;;;;2.28;1.75;;;21.50;41.60;;;;;;5057147;28;20040;-34
2024/02/08 12:54:07;;;;;;;2.25;2.05;;;21.50;41.70;;;;;;5056421;28;20025;-34
2024/02/08 12:56:36;;;;;;;2.50;2.10;;;21.50;41.60;;;;;;5075682;28;20740;-32
2024/02/08 12:59:03;;;;;;;2.83;2.00;;;21.50;41.70;;;;;;5077109;28;20025;-36
2024/02/08 13:01:38;;;;;;;2.38;2.10;;;21.50;41.70;;;;;;5080759;28;20029;-31
2024/02/08 13:04:08;;;;;;;2.42;1.98;;;21.60;41.60;;;;;;5059342;28;20067;-39
2024/02/08 13:06:34;;;;;;;2.65;1.73;;;21.60;41.60;;;;;;5078933;28;20037;-30
2024/02/08 13:09:25;;;;;;;3.55;1.65;;;21.50;41.60;;;;;;5076421;28;20034;-35
2024/02/08 13:12:14;;;;;;;2.55;2.00;;;21.50;41.50;;;;;;5075361;28;20041;-33
2024/02/08 13:14:57;;;;;;;4.25;2.03;;;21.50;41.70;;;;;;5075123;28;20029;-32
2024/02/08 13:17:26;;;;;;;3.10;1.75;;;21.60;41.60;;;;;;5075926;28;20035;-30
2024/02/08 13:19:55;;;;;;;2.55;2.10;;;21.60;41.60;;;;;;5076274;28;20201;-31
2024/02/08 13:22:24;;;;;;;2.63;1.80;;;21.60;41.80;;;;;;5076060;28;20024;-31
2024/02/08 13:24:53;;;;;;;2.63;2.10;;;21.60;42.10;;;;;;5057584;28;20044;-31
2024/02/08 13:27:24;;;;;;;2.50;2.03;;;21.60;41.50;;;;;;5075929;28;20032;-35
2024/02/08 13:29:51;;;;;;;2.42;2.00;;;21.50;41.40;;;;;;5066423;28;20038;-33
2024/02/08 13:32:18;;;;;;;1.90;1.73;;;21.50;41.40;;;;;;5068861;28;20039;-31
2024/02/08 13:34:44;;;;;;;4.43;2.20;;;21.60;41.40;;;;;;5072396;28;20021;-33
2024/02/08 13:37:16;;;;;;;2.05;1.63;;;21.60;41.40;;;;;;5071959;28;20031;-36
2024/02/08 13:39:43;;;;;;;2.53;1.98;;;21.60;41.40;;;;;;5070719;28;20493;-35
2024/02/08 13:42:11;;;;;;;2.53;1.80;;;21.60;41.40;;;;;;5074672;28;20033;-32
2024/02/08 13:44:37;;;;;;;2.80;1.92;;;21.50;41.30;;;;;;5071824;28;20710;-30
2024/02/08 13:47:03;;;;;;;1.92;1.73;;;21.50;41.20;;;;;;5070585;28;20028;-34
2024/02/08 13:49:33;;;;;;;3.10;2.08;;;21.60;41.30;;;;;;5073697;28;20091;-32
2024/02/08 13:52:00;;;;;;;3.95;2.20;;;21.60;41.40;;;;;;5070503;28;20529;-30
2024/02/08 13:54:37;;;;;;;2.05;1.70;;;21.60;41.40;;;;;;5070718;28;20032;-33
2024/02/08 13:57:14;;;;;;;2.60;1.77;;;21.60;41.40;;;;;;5069099;28;20024;-32
2024/02/08 13:59:48;;;;;;;2.20;1.70;;;21.60;41.30;;;;;;5069422;28;20036;-33
2024/02/08 14:02:15;;;;;;;3.10;2.20;;;21.60;41.20;;;;;;5068734;28;20029;-31
2024/02/08 14:04:55;;;;;;;2.85;1.98;;;21.60;41.30;;;;;;5070444;28;20075;-33
2024/02/08 14:07:25;;;;;;;2.15;1.95;;;21.60;41.40;;;;;;5068218;28;20095;-34
2024/02/08 14:10:06;;;;;;;2.47;1.92;;;21.60;41.30;;;;;;5067725;28;20020;-30
2024/02/08 14:12:33;;;;;;;3.13;2.47;;;21.60;41.30;;;;;;5052877;28;20055;-30
2024/02/08 14:15:06;;;;;;;3.05;1.90;;;21.60;41.30;;;;;;5070162;28;20039;-35
2024/02/08 14:17:37;;;;;;;2.47;2.00;;;21.60;41.30;;;;;;5069627;28;20048;-33
2024/02/08 14:22:51;;;;;;;2.50;2.00;;;21.60;41.40;;;;;;5070995;28;20031;-31
2024/02/08 14:25:23;;;;;;;2.75;2.00;;;21.60;41.40;;;;;;5069718;28;20075;-32
2024/02/08 14:27:49;;;;;;;2.88;2.00;;;21.60;41.40;;;;;;5069014;28;20029;-34
2024/02/08 14:30:19;;;;;;;3.10;2.28;;;21.60;41.40;;;;;;5068406;28;20098;-31
2024/02/08 14:32:45;;;;;;;3.45;2.20;;;21.60;41.50;;;;;;5069037;28;20043;-33
2024/02/08 14:35:16;;;;;;;2.45;2.00;;;21.70;41.60;;;;;;5069425;28;20084;-33
2024/02/08 14:37:46;;;;;;;3.42;2.10;;;21.70;41.50;;;;;;5067156;28;20024;-35
2024/02/08 14:40:13;;;;;;;2.03;1.80;;;21.70;41.60;;;;;;5069205;28;20033;-33
2024/02/08 14:42:43;;;;;;;2.40;1.92;;;21.70;41.70;;;;;;5072118;28;20099;-34
2024/02/08 14:45:12;;;;;;;2.35;1.92;;;21.60;41.70;;;;;;5071481;28;20044;-36
2024/02/08 14:47:41;;;;;;;3.25;2.17;;;21.70;41.60;;;;;;5068313;28;20500;-41
2024/02/08 14:50:48;;;;;;;2.40;2.03;;;21.70;41.60;;;;;;5069150;28;20123;-31
2024/02/08 14:52:54;;;;;;;2.85;2.03;;;21.70;41.60;;;;;;5064723;28;20044;-32
2024/02/08 14:55:21;;;;;;;2.50;2.13;;;21.70;41.70;;;;;;5068353;28;20059;-35
2024/02/08 14:57:47;;;;;;;2.60;2.17;;;21.70;41.60;;;;;;5066774;28;20037;-34
2024/02/08 15:03:07;;;;;;;2.50;2.30;;;21.70;41.50;;;;;;5069274;28;20036;-33
2024/02/08 15:05:46;;;;;;;3.42;2.10;;;21.80;41.50;;;;;;5065228;28;20425;-34
2024/02/08 15:10:45;;;;;;;2.92;2.13;;;21.80;41.50;;;;;;5052068;28;20029;-31
2024/02/08 15:13:18;;;;;;;2.45;2.13;;;21.70;41.50;;;;;;5068686;28;20028;-33
2024/02/08 15:15:50;;;;;;;2.90;2.40;;;21.70;41.40;;;;;;5067662;28;20291;-31
2024/02/08 15:18:30;;;;;;;3.00;2.35;;;21.80;41.40;;;;;;5049488;28;20155;-35
2024/02/08 15:21:00;;;;;;;4.15;2.45;;;21.80;41.30;;;;;;5072147;28;20033;-36